Time;durP1;ratioP1;P1;durP2;ratioP2;P2;SDS_P1;SDS_P2;PMS_P1;PMS_P2;Temp;Humidity;BMP_temperature;BMP_pressure;BME280_temperature;BME280_humidity;BME280_pressure;Samples;Min_cycle;Max_cycle;Signal;HPM_P1;HPM_P2
2021/05/10 00:00:33;;;;;;;3.63;1.26;;;;;;;16.62;69.14;97937.03;2016983;78;22103;-73
2021/05/10 00:03:35;;;;;;;3.46;1.44;;;;;;;16.60;69.35;97938.88;2023513;80;20166;-72
2021/05/10 00:06:36;;;;;;;1.76;1.30;;;;;;;16.53;70.16;97940.13;2021994;80;20674;-72
2021/05/10 00:09:38;;;;;;;2.55;1.30;;;;;;;16.44;71.06;97927.50;2023027;80;20212;-72
2021/05/10 00:12:40;;;;;;;2.51;1.11;;;;;;;16.37;71.42;97932.22;2021992;80;20179;-72
2021/05/10 00:15:41;;;;;;;1.48;1.10;;;;;;;16.35;71.70;97938.47;2019643;80;22332;-72
2021/05/10 00:18:43;;;;;;;4.63;1.10;;;;;;;16.29;71.60;97921.28;2018167;80;20282;-73
2021/05/10 00:21:45;;;;;;;3.45;1.04;;;;;;;16.24;71.92;97920.66;2016536;80;20171;-72
2021/05/10 00:24:46;;;;;;;2.01;1.05;;;;;;;16.20;71.62;97924.38;2017484;80;20191;-73
2021/05/10 00:27:48;;;;;;;2.36;1.34;;;;;;;16.13;71.92;97918.56;2016804;80;20361;-73
2021/05/10 00:30:50;;;;;;;3.05;1.00;;;;;;;16.06;72.09;97911.97;2019177;78;20208;-73
2021/05/10 00:33:51;;;;;;;2.39;0.96;;;;;;;16.03;71.47;97909.50;2017758;80;20212;-72
2021/05/10 00:36:53;;;;;;;3.49;1.09;;;;;;;16.04;70.71;97910.34;2016460;80;20201;-72
2021/05/10 00:39:55;;;;;;;1.44;0.86;;;;;;;15.94;71.07;97904.72;2017001;80;20172;-73
2021/05/10 00:42:57;;;;;;;4.61;0.80;;;;;;;15.89;71.31;97915.41;2016849;80;20183;-73
2021/05/10 00:45:59;;;;;;;1.92;0.90;;;;;;;15.83;71.28;97917.50;2016083;80;21795;-73
2021/05/10 00:49:01;;;;;;;1.98;0.80;;;;;;;15.77;71.37;97926.47;2017032;80;20248;-72
2021/05/10 00:52:03;;;;;;;1.83;1.04;;;;;;;15.74;71.40;97920.56;2016736;80;20155;-72
2021/05/10 00:55:07;;;;;;;1.85;0.76;;;;;;;15.67;71.49;97920.88;2016767;80;20641;-73
2021/05/10 00:58:09;;;;;;;1.90;0.80;;;;;;;15.63;71.17;97923.72;2017119;80;20164;-72
2021/05/10 01:01:10;;;;;;;1.27;0.76;;;;;;;15.57;71.64;97930.03;2018366;77;24139;-72
2021/05/10 01:04:12;;;;;;;2.50;0.88;;;;;;;15.53;71.23;97927.66;2022499;80;20211;-72
2021/05/10 01:07:13;;;;;;;1.76;0.70;;;;;;;15.59;70.31;97928.22;2021723;80;20232;-72
2021/05/10 01:10:19;;;;;;;1.19;0.90;;;;;;;15.78;68.26;97945.66;2022120;80;20234;-73
2021/05/10 01:13:21;;;;;;;2.79;0.71;;;;;;;15.93;67.94;97960.63;2022054;80;20179;-73
2021/05/10 01:16:23;;;;;;;1.99;0.84;;;;;;;15.95;68.04;97977.09;2019274;78;20680;-74
2021/05/10 01:19:26;;;;;;;0.64;0.59;;;;;;;15.97;66.97;97983.94;2017964;80;20288;-73
2021/05/10 01:22:54;;;;;;;2.10;0.61;;;;;;;16.08;65.68;98001.75;2016565;80;20203;-73
2021/05/10 01:25:57;;;;;;;2.55;0.70;;;;;;;16.14;65.34;98003.22;2017147;80;20168;-73
2021/05/10 01:28:58;;;;;;;2.36;0.56;;;;;;;16.21;65.03;98004.63;2016445;80;20313;-73
2021/05/10 01:32:00;;;;;;;1.00;0.80;;;;;;;16.25;64.92;98012.25;2018975;78;20208;-73
2021/05/10 01:35:06;;;;;;;1.94;0.80;;;;;;;16.28;65.32;98003.41;2022463;80;20349;-72
2021/05/10 01:38:08;;;;;;;2.78;0.69;;;;;;;16.31;64.65;97990.13;2021165;80;20171;-72
2021/05/10 01:41:10;;;;;;;2.46;0.93;;;;;;;16.33;64.44;98001.38;2021618;80;20221;-73
2021/05/10 01:44:11;;;;;;;1.76;0.76;;;;;;;16.31;65.14;98018.94;2021521;80;20195;-72
2021/05/10 01:47:13;;;;;;;1.08;0.70;;;;;;;16.32;64.88;97994.44;2016365;78;21108;-72
2021/05/10 01:50:20;;;;;;;2.24;0.71;;;;;;;16.35;64.74;97996.94;2016491;80;20845;-73
2021/05/10 01:53:22;;;;;;;3.16;0.77;;;;;;;16.33;65.22;97993.53;2016260;80;20241;-72
2021/05/10 01:56:24;;;;;;;1.15;0.54;;;;;;;16.31;65.44;97990.13;2016385;80;20208;-72
2021/05/10 01:59:25;;;;;;;2.29;0.69;;;;;;;16.28;65.55;97985.91;2016624;80;20577;-75
2021/05/10 02:02:27;;;;;;;3.67;0.80;;;;;;;16.25;66.09;97979.97;2020252;78;21185;-72
2021/05/10 02:05:31;;;;;;;2.78;1.05;;;;;;;16.20;66.81;97974.13;2024835;80;20216;-73
2021/05/10 02:08:32;;;;;;;3.61;0.70;;;;;;;16.18;67.12;97989.91;2024383;80;20190;-73
2021/05/10 02:11:34;;;;;;;1.58;0.70;;;;;;;16.12;67.51;97994.59;2024199;80;20183;-73
2021/05/10 02:14:36;;;;;;;0.60;0.60;;;;;;;16.04;68.08;97994.13;2024146;80;20632;-74
2021/05/10 02:17:37;;;;;;;3.84;0.96;;;;;;;15.94;69.14;98005.03;2023186;80;22828;-73
2021/05/10 02:20:40;;;;;;;1.14;0.64;;;;;;;15.86;69.54;98030.75;2024397;80;20204;-73
2021/05/10 02:23:42;;;;;;;2.33;0.70;;;;;;;15.82;68.94;98046.69;2024297;80;20793;-73
2021/05/10 02:26:43;;;;;;;3.35;0.86;;;;;;;15.81;69.13;98050.22;2023996;80;20203;-73
2021/05/10 02:29:45;;;;;;;2.09;0.74;;;;;;;15.78;69.37;98048.56;2024649;80;20816;-73
2021/05/10 02:32:47;;;;;;;2.36;0.70;;;;;;;15.80;68.58;98049.38;2018557;78;22002;-73
2021/05/10 02:35:52;;;;;;;4.32;0.70;;;;;;;15.90;66.93;98055.84;2019338;80;20557;-73
2021/05/10 02:38:53;;;;;;;0.96;0.69;;;;;;;15.94;66.69;98064.41;2018861;80;20175;-72
2021/05/10 02:41:55;;;;;;;0.86;0.70;;;;;;;15.94;68.06;98074.88;2019278;80;20206;-73
2021/05/10 02:44:57;;;;;;;1.55;0.80;;;;;;;15.86;69.19;98075.25;2019579;80;20175;-73
2021/05/10 02:47:59;;;;;;;1.88;0.71;;;;;;;15.82;69.90;98075.47;2022764;78;20766;-73
2021/05/10 02:51:01;;;;;;;1.63;0.60;;;;;;;15.79;70.07;98075.59;2023914;80;20573;-73
2021/05/10 02:54:03;;;;;;;1.29;0.55;;;;;;;15.81;69.25;98084.25;2023332;80;20203;-73
2021/05/10 02:57:05;;;;;;;2.04;0.80;;;;;;;15.96;66.13;98088.75;2023987;80;20191;-73
2021/05/10 03:00:08;;;;;;;2.30;1.04;;;;;;;16.05;66.38;98111.03;2022905;80;20931;-73
2021/05/10 03:03:10;;;;;;;4.06;0.60;;;;;;;16.11;64.51;98134.31;2017603;78;20859;-72
2021/05/10 03:06:12;;;;;;;1.79;0.50;;;;;;;16.40;62.86;98165.22;2017718;80;20199;-73
2021/05/10 03:09:13;;;;;;;1.81;0.51;;;;;;;16.58;62.78;98155.63;2017635;80;20206;-73
2021/05/10 03:12:15;;;;;;;3.21;0.65;;;;;;;16.76;61.29;98149.53;2017151;80;20201;-73
2021/05/10 03:15:19;;;;;;;1.41;0.60;;;;;;;16.86;61.04;98136.78;2016586;78;20948;-72
2021/05/10 03:18:20;;;;;;;3.34;0.50;;;;;;;16.86;61.50;98134.16;2022983;80;20175;-72
2021/05/10 03:21:22;;;;;;;1.50;0.50;;;;;;;16.95;60.04;98135.50;2022819;80;20187;-73
2021/05/10 03:24:24;;;;;;;0.96;0.50;;;;;;;16.99;60.82;98129.16;2025204;80;20285;-73
2021/05/10 03:27:26;;;;;;;1.48;0.52;;;;;;;16.90;61.74;98120.84;2022827;80;20171;-72
2021/05/10 03:30:27;;;;;;;3.97;0.60;;;;;;;16.89;61.48;98145.38;2020858;78;20938;-72
2021/05/10 03:33:29;;;;;;;1.52;0.56;;;;;;;16.82;62.57;98151.00;2017153;80;20977;-75
2021/05/10 03:36:31;;;;;;;0.81;0.50;;;;;;;16.74;63.83;98153.16;2017225;80;20176;-74
2021/05/10 03:39:33;;;;;;;5.04;0.60;;;;;;;16.67;63.48;98157.81;2017158;80;20192;-72
2021/05/10 03:42:35;;;;;;;8.35;0.65;;;;;;;16.57;64.25;98167.03;2017549;80;20680;-72
2021/05/10 03:45:36;;;;;;;2.15;0.60;;;;;;;16.54;64.00;98182.91;2017865;77;30970;-72
2021/05/10 03:48:38;;;;;;;1.66;0.50;;;;;;;16.50;63.94;98181.34;2022276;80;20159;-73
2021/05/10 03:51:39;;;;;;;4.22;0.40;;;;;;;16.61;61.37;98181.69;2022259;80;20171;-72
2021/05/10 03:54:41;;;;;;;3.46;0.73;;;;;;;16.73;61.39;98182.91;2022120;80;20178;-72
2021/05/10 03:57:43;;;;;;;4.21;1.09;;;;;;;16.81;60.51;98173.72;2022412;80;20203;-72
2021/05/10 04:00:45;;;;;;;4.65;0.57;;;;;;;16.88;60.88;98190.88;2021722;77;22981;-72
2021/05/10 04:10:45;;;;;;;1.89;0.52;;;;;;;17.06;60.94;98204.00;2022344;80;20710;-72
2021/05/10 04:13:52;;;;;;;0.80;0.50;;;;;;;17.01;61.56;98211.22;2023087;80;20182;-72
2021/05/10 04:16:53;;;;;;;2.44;0.50;;;;;;;16.94;62.96;98223.81;2018233;78;21875;-73
2021/05/10 04:19:55;;;;;;;4.21;1.15;;;;;;;16.79;65.00;98221.94;2017030;80;20234;-74
2021/05/10 04:22:57;;;;;;;5.68;0.70;;;;;;;16.65;66.21;98233.03;2016929;80;20929;-73
2021/05/10 04:25:59;;;;;;;2.46;0.70;;;;;;;16.51;67.76;98244.16;2017027;80;20627;-73
2021/05/10 04:29:00;;;;;;;2.79;0.70;;;;;;;16.36;69.10;98242.28;2017609;80;20180;-74
2021/05/10 04:32:02;;;;;;;5.59;0.80;;;;;;;16.26;70.03;98240.97;2019704;78;21102;-73
2021/05/10 04:35:05;;;;;;;2.28;0.60;;;;;;;16.12;71.97;98236.38;2023034;80;20713;-73
2021/05/10 04:38:10;;;;;;;3.22;0.60;;;;;;;16.06;71.73;98246.28;2021991;80;20251;-72
2021/05/10 04:41:12;;;;;;;2.63;0.64;;;;;;;15.94;72.70;98256.38;2022909;80;20186;-73
2021/05/10 04:44:14;;;;;;;2.61;0.70;;;;;;;15.87;73.83;98267.19;2022541;80;20758;-73
2021/05/10 04:47:15;;;;;;;2.40;0.63;;;;;;;15.75;73.82;98275.56;2020048;78;20839;-72
2021/05/10 04:50:18;;;;;;;2.00;0.60;;;;;;;15.73;73.85;98275.63;2022142;80;20208;-74
2021/05/10 04:53:20;;;;;;;4.06;0.95;;;;;;;15.70;74.01;98278.38;2022127;80;20204;-74
2021/05/10 04:56:22;;;;;;;3.56;0.89;;;;;;;15.69;74.27;98281.94;2021983;80;20167;-74
2021/05/10 04:59:23;;;;;;;3.59;0.79;;;;;;;15.66;74.87;98282.06;2022052;80;20236;-73
2021/05/10 05:02:26;;;;;;;1.20;0.70;;;;;;;15.60;75.33;98282.31;2017580;80;20566;-74
2021/05/10 05:05:28;;;;;;;3.04;0.60;;;;;;;15.58;75.19;98284.09;2017484;80;20241;-73
2021/05/10 05:08:30;;;;;;;2.88;0.61;;;;;;;15.56;75.21;98272.84;2016207;80;20160;-75
2021/05/10 05:11:32;;;;;;;3.41;1.00;;;;;;;15.54;76.06;98285.16;2016646;80;20180;-73
2021/05/10 05:14:33;;;;;;;1.19;0.60;;;;;;;15.50;77.22;98280.97;2017032;80;20356;-75
2021/05/10 05:17:36;;;;;;;2.35;0.89;;;;;;;15.45;78.15;98277.72;2015680;78;27281;-75
2021/05/10 05:20:38;;;;;;;0.80;0.66;;;;;;;15.40;78.59;98278.72;2016083;80;20840;-75
2021/05/10 05:23:40;;;;;;;5.31;0.70;;;;;;;15.39;78.92;98279.66;2017091;80;20205;-74
2021/05/10 05:26:41;;;;;;;2.05;0.70;;;;;;;15.37;78.92;98294.56;2016370;80;20168;-75
2021/05/10 05:29:43;;;;;;;3.01;0.80;;;;;;;15.32;78.67;98293.06;2017800;80;20191;-74
2021/05/10 05:32:44;;;;;;;3.69;0.80;;;;;;;15.32;79.04;98300.91;2019944;77;21032;-75
2021/05/10 05:35:46;;;;;;;3.21;0.69;;;;;;;15.28;79.50;98300.19;2022437;80;20217;-74
2021/05/10 05:38:47;;;;;;;1.58;0.73;;;;;;;15.29;79.91;98293.19;2021816;80;20191;-74
2021/05/10 05:41:49;;;;;;;2.74;0.79;;;;;;;15.24;81.02;98298.56;2022652;80;20195;-74
2021/05/10 05:44:53;;;;;;;2.76;0.71;;;;;;;15.23;81.66;98288.19;2023140;80;20186;-74
2021/05/10 05:47:55;;;;;;;1.96;0.70;;;;;;;15.24;81.46;98284.66;2016481;80;22485;-74
2021/05/10 05:50:57;;;;;;;3.51;0.80;;;;;;;15.28;80.90;98287.09;2017205;80;20277;-74
2021/05/10 05:53:59;;;;;;;2.83;0.91;;;;;;;15.33;80.41;98323.53;2017277;80;20966;-74
2021/05/10 05:57:01;;;;;;;1.44;0.77;;;;;;;15.30;80.70;98329.72;2017840;80;20172;-74
2021/05/10 06:00:03;;;;;;;1.64;0.90;;;;;;;15.31;79.86;98320.13;2017156;80;20668;-74
2021/05/10 06:03:05;;;;;;;1.59;0.81;;;;;;;15.31;80.06;98326.19;2022259;78;23848;-73
2021/05/10 06:06:09;;;;;;;3.26;0.88;;;;;;;15.32;78.71;98343.59;2022410;80;20191;-73
2021/05/10 06:09:11;;;;;;;3.39;0.80;;;;;;;15.34;78.05;98356.59;2022620;80;20179;-74
2021/05/10 06:12:13;;;;;;;2.24;0.80;;;;;;;15.37;77.45;98349.47;2022433;80;20194;-74
2021/05/10 06:15:15;;;;;;;3.95;0.80;;;;;;;15.39;77.25;98347.66;2021772;78;24320;-72
2021/05/10 06:18:16;;;;;;;2.56;0.64;;;;;;;15.39;78.04;98367.72;2017151;80;20465;-74
2021/05/10 06:21:18;;;;;;;4.69;0.88;;;;;;;15.42;78.09;98362.38;2017819;80;20646;-75
2021/05/10 06:24:21;;;;;;;1.85;0.81;;;;;;;15.43;78.11;98359.69;2018355;80;20180;-74
2021/05/10 06:27:23;;;;;;;2.10;0.90;;;;;;;15.53;77.91;98367.19;2017394;80;20227;-74
2021/05/10 06:30:25;;;;;;;1.14;0.70;;;;;;;15.60;77.19;98379.13;2017522;77;20711;-73
2021/05/10 06:33:27;;;;;;;1.99;0.89;;;;;;;15.62;77.48;98380.78;2022224;80;20167;-74
2021/05/10 06:36:28;;;;;;;4.84;0.91;;;;;;;15.69;76.83;98378.75;2023985;80;20579;-73
2021/05/10 06:39:30;;;;;;;2.13;0.70;;;;;;;15.77;76.26;98374.03;2021854;80;20163;-75
2021/05/10 06:42:32;;;;;;;2.67;0.60;;;;;;;15.83;76.23;98384.28;2023395;80;20584;-73
2021/05/10 06:45:34;;;;;;;1.88;0.70;;;;;;;15.84;75.24;98388.59;2020948;78;20706;-72
2021/05/10 06:48:36;;;;;;;2.51;0.76;;;;;;;15.85;75.75;98392.91;2017267;80;20201;-75
2021/05/10 06:51:37;;;;;;;1.05;0.69;;;;;;;15.84;75.68;98393.84;2017243;80;21105;-74
2021/05/10 06:54:39;;;;;;;2.90;0.73;;;;;;;15.84;75.85;98403.44;2017442;80;20201;-74
2021/05/10 06:57:41;;;;;;;1.40;0.60;;;;;;;15.83;76.55;98422.69;2017185;80;20215;-74
2021/05/10 07:00:43;;;;;;;2.83;0.80;;;;;;;15.84;76.66;98419.16;2017191;78;24037;-73
2021/05/10 07:03:45;;;;;;;2.89;0.59;;;;;;;15.81;75.75;98419.28;2022357;80;20276;-73
2021/05/10 07:06:46;;;;;;;3.51;0.60;;;;;;;15.72;76.44;98394.31;2022938;80;20179;-73
2021/05/10 07:09:48;;;;;;;5.68;1.44;;;;;;;15.76;76.32;98405.50;2022604;80;20215;-72
2021/05/10 07:12:50;;;;;;;2.86;0.49;;;;;;;15.84;76.16;98432.25;2022868;80;20209;-72
2021/05/10 07:15:51;;;;;;;1.45;0.41;;;;;;;15.86;74.92;98460.06;2019028;78;20221;-73
2021/05/10 07:18:56;;;;;;;0.79;0.40;;;;;;;15.82;73.65;98468.09;2016330;80;20248;-73
2021/05/10 07:21:58;;;;;;;5.03;0.50;;;;;;;15.80;73.28;98481.25;2016876;80;20268;-74
2021/05/10 07:24:59;;;;;;;6.11;0.50;;;;;;;15.85;73.55;98497.63;2017183;80;20205;-73
2021/05/10 07:28:02;;;;;;;0.86;0.32;;;;;;;15.89;73.33;98491.34;2017183;80;20209;-73
2021/05/10 07:31:04;;;;;;;0.41;0.40;;;;;;;15.97;73.06;98485.78;2018453;78;24191;-73
2021/05/10 07:34:05;;;;;;;1.29;0.30;;;;;;;16.03;73.08;98496.03;2022212;80;20195;-73
2021/05/10 07:37:11;;;;;;;1.73;0.68;;;;;;;16.05;72.33;98494.19;2021762;80;20293;-72
2021/05/10 07:40:13;;;;;;;1.74;0.29;;;;;;;16.05;71.07;98493.34;2022694;80;20183;-73
2021/05/10 07:43:15;;;;;;;1.65;0.40;;;;;;;16.05;71.31;98501.19;2021993;80;20174;-72
2021/05/10 07:46:17;;;;;;;1.02;0.40;;;;;;;16.20;71.17;98495.34;2019291;78;21272;-72
2021/05/10 07:49:19;;;;;;;0.98;0.30;;;;;;;16.57;70.51;98486.78;2017349;80;20281;-73
2021/05/10 07:52:20;;;;;;;1.64;0.89;;;;;;;16.81;68.93;98492.75;2016093;80;20196;-73
2021/05/10 07:55:23;;;;;;;0.84;0.30;;;;;;;16.87;68.30;98501.19;2013116;80;20241;-73
2021/05/10 07:58:25;;;;;;;0.35;0.30;;;;;;;16.77;68.16;98484.16;2017156;80;20825;-73
2021/05/10 08:01:27;;;;;;;0.39;0.30;;;;;;;16.75;68.67;98511.38;2015674;80;20167;-73
2021/05/10 08:04:29;;;;;;;1.25;0.30;;;;;;;16.73;68.54;98531.56;2017099;80;20569;-73
2021/05/10 08:07:30;;;;;;;3.56;0.30;;;;;;;16.61;68.75;98546.84;2016753;80;20760;-73
2021/05/10 08:10:32;;;;;;;1.19;0.30;;;;;;;16.46;68.51;98542.25;2016927;80;20217;-72
2021/05/10 08:13:34;;;;;;;0.55;0.30;;;;;;;16.37;69.21;98552.28;2016728;80;20204;-74
2021/05/10 08:16:36;;;;;;;3.11;0.38;;;;;;;16.23;70.08;98564.16;2018273;77;20906;-74
2021/05/10 08:19:38;;;;;;;1.99;0.30;;;;;;;16.11;71.63;98559.41;2022795;80;20305;-77
2021/05/10 08:22:40;;;;;;;1.15;0.30;;;;;;;15.88;72.74;98564.72;2022398;80;20294;-78
2021/05/10 08:25:42;;;;;;;0.76;0.30;;;;;;;15.71;74.64;98563.59;2021478;80;20201;-76
2021/05/10 08:28:44;;;;;;;0.74;0.35;;;;;;;15.58;75.68;98572.78;2022990;80;20321;-76
2021/05/10 08:31:46;;;;;;;0.82;0.21;;;;;;;15.49;76.23;98572.28;2018904;78;20727;-75
2021/05/10 08:34:48;;;;;;;0.44;0.32;;;;;;;15.43;76.36;98565.50;2016927;80;21262;-76
2021/05/10 08:37:49;;;;;;;1.16;0.36;;;;;;;15.32;76.59;98571.16;2016807;80;20192;-76
2021/05/10 08:40:52;;;;;;;0.46;0.39;;;;;;;15.23;76.92;98566.25;2019658;80;20635;-77
2021/05/10 08:43:57;;;;;;;1.41;0.22;;;;;;;15.22;78.01;98564.53;2012345;80;20207;-76
2021/05/10 08:46:59;;;;;;;0.46;0.30;;;;;;;15.18;78.60;98557.72;2019341;78;21195;-75
2021/05/10 08:50:04;;;;;;;1.64;0.45;;;;;;;15.13;78.79;98564.03;2020448;80;20171;-75
2021/05/10 08:53:06;;;;;;;0.45;0.30;;;;;;;15.10;79.27;98586.78;2023345;80;20309;-76
2021/05/10 08:56:09;;;;;;;0.98;0.40;;;;;;;15.14;79.54;98566.59;2020479;80;20175;-75
2021/05/10 08:59:11;;;;;;;0.63;0.40;;;;;;;15.14;79.43;98566.59;2020505;80;20299;-76
2021/05/10 09:02:12;;;;;;;3.40;0.65;;;;;;;15.15;80.11;98559.59;2014998;78;23615;-74
2021/05/10 09:05:17;;;;;;;2.33;0.49;;;;;;;15.16;79.87;98546.47;2014994;80;20253;-74
2021/05/10 09:08:18;;;;;;;1.88;0.80;;;;;;;15.19;80.36;98546.34;2014407;80;20217;-74
2021/05/10 09:11:21;;;;;;;0.63;0.60;;;;;;;15.25;80.15;98567.03;2014635;80;20172;-75
2021/05/10 09:14:34;;;;;;;3.10;0.80;;;;;;;15.27;80.45;98580.09;2015707;80;21337;-74
2021/05/10 09:17:51;;;;;;;1.49;0.68;;;;;;;15.29;80.33;98605.28;2014708;78;20212;-74
2021/05/10 09:20:53;;;;;;;1.00;0.69;;;;;;;15.24;79.28;98612.41;2015749;80;20172;-73
2021/05/10 09:23:57;;;;;;;0.68;0.56;;;;;;;15.12;79.25;98610.25;2016307;80;20235;-73
2021/05/10 09:26:59;;;;;;;0.57;0.52;;;;;;;15.07;79.50;98618.22;2015818;80;20179;-74
2021/05/10 09:30:23;;;;;;;1.00;0.45;;;;;;;15.02;80.30;98621.94;2016317;80;20180;-73
2021/05/10 09:33:27;;;;;;;0.64;0.44;;;;;;;14.93;80.05;98625.72;2022702;80;20204;-74
2021/05/10 09:36:37;;;;;;;1.04;0.59;;;;;;;14.91;80.33;98626.69;2020676;80;20661;-74
2021/05/10 09:39:39;;;;;;;0.40;0.40;;;;;;;14.97;80.88;98621.25;2021154;80;20179;-74
2021/05/10 09:42:51;;;;;;;0.40;0.30;;;;;;;15.00;80.86;98610.66;2021106;80;20293;-75
2021/05/10 09:45:59;;;;;;;0.70;0.31;;;;;;;14.97;80.88;98601.19;2018979;78;21314;-73
2021/05/10 09:49:01;;;;;;;0.98;0.44;;;;;;;14.96;80.30;98614.31;2017290;80;20201;-73
2021/05/10 09:52:23;;;;;;;1.69;0.30;;;;;;;14.92;80.73;98633.63;2017009;80;20300;-74
2021/05/10 09:56:07;;;;;;;0.30;0.30;;;;;;;14.93;80.80;98640.56;2017302;80;20302;-73
2021/05/10 09:59:12;;;;;;;0.61;0.30;;;;;;;15.00;80.71;98640.28;2017396;80;20160;-74
2021/05/10 10:02:32;;;;;;;1.52;0.40;;;;;;;15.05;80.82;98654.03;2020124;78;27036;-74
2021/05/10 10:05:35;;;;;;;0.74;0.36;;;;;;;15.13;81.07;98651.19;2022394;80;20705;-74
2021/05/10 10:08:38;;;;;;;2.58;0.38;;;;;;;15.02;79.48;98656.78;2022455;80;20212;-74
2021/05/10 10:11:41;;;;;;;0.43;0.30;;;;;;;15.03;80.08;98668.94;2020895;80;20223;-74
2021/05/10 10:14:43;;;;;;;0.75;0.26;;;;;;;15.16;80.82;98685.06;2022809;80;20175;-74
2021/05/10 10:17:46;;;;;;;0.38;0.30;;;;;;;15.26;79.63;98662.94;2016919;78;32604;-74
2021/05/10 10:20:51;;;;;;;2.13;0.30;;;;;;;15.40;78.79;98672.88;2017242;80;20167;-74
2021/05/10 10:24:03;;;;;;;1.45;0.29;;;;;;;15.58;78.06;98677.47;2017219;80;20229;-75
2021/05/10 10:27:25;;;;;;;0.36;0.20;;;;;;;15.79;78.29;98668.00;2016068;80;20257;-75
2021/05/10 10:30:31;;;;;;;0.30;0.30;;;;;;;15.91;76.91;98669.31;2014965;80;21756;-75
2021/05/10 10:33:52;;;;;;;0.25;0.25;;;;;;;15.93;76.04;98657.88;2020892;80;20208;-72
2021/05/10 10:36:59;;;;;;;0.51;0.20;;;;;;;15.93;76.25;98660.50;2020623;80;20212;-73
2021/05/10 10:40:03;;;;;;;0.30;0.29;;;;;;;15.93;75.86;98680.59;2021061;80;20807;-72
2021/05/10 10:43:24;;;;;;;0.30;0.30;;;;;;;15.75;75.20;98689.13;2020695;80;20236;-72
2021/05/10 10:46:29;;;;;;;0.73;0.20;;;;;;;15.67;76.31;98698.13;2017577;78;20554;-72
2021/05/10 10:49:33;;;;;;;2.05;0.30;;;;;;;15.58;75.94;98703.63;2015033;80;20211;-72
2021/05/10 10:52:48;;;;;;;0.46;0.20;;;;;;;15.49;76.11;98719.66;2015577;80;20213;-72
2021/05/10 10:55:53;;;;;;;0.20;0.20;;;;;;;15.41;75.77;98724.31;2015628;80;20168;-74
2021/05/10 10:59:29;;;;;;;0.70;0.20;;;;;;;15.38;76.15;98732.25;2015370;80;21243;-74
2021/05/10 11:02:54;;;;;;;0.51;0.30;;;;;;;15.40;76.46;98733.91;2020409;78;24102;-74
2021/05/10 11:05:56;;;;;;;0.22;0.20;;;;;;;15.51;77.07;98738.78;2019855;80;20208;-75
2021/05/10 11:08:58;;;;;;;1.59;0.30;;;;;;;15.55;75.81;98734.28;2020106;80;20222;-74
2021/05/10 11:12:00;;;;;;;0.50;0.35;;;;;;;15.62;75.64;98746.31;2021526;80;20680;-75
2021/05/10 11:15:04;;;;;;;0.29;0.29;;;;;;;15.69;75.75;98759.09;2020422;80;20175;-74
2021/05/10 11:18:06;;;;;;;0.30;0.30;;;;;;;15.73;75.00;98764.22;2015836;78;21043;-74
2021/05/10 11:21:10;;;;;;;1.98;0.30;;;;;;;15.81;74.71;98760.44;2016975;80;20280;-74
2021/05/10 11:24:24;;;;;;;0.70;0.20;;;;;;;15.86;75.39;98753.28;2017362;80;20187;-73
2021/05/10 11:27:32;;;;;;;0.21;0.21;;;;;;;15.92;74.52;98737.34;2016810;80;20213;-74
2021/05/10 11:31:04;;;;;;;0.56;0.20;;;;;;;16.02;74.90;98730.84;2017216;78;32892;-74
2021/05/10 11:34:09;;;;;;;0.69;0.20;;;;;;;15.99;74.63;98723.13;2020944;80;20174;-74
2021/05/10 11:37:12;;;;;;;1.27;0.19;;;;;;;15.96;74.21;98711.88;2022046;80;20236;-74
2021/05/10 11:40:13;;;;;;;0.88;0.26;;;;;;;15.98;74.24;98703.09;2021739;80;20768;-74
2021/05/10 11:43:16;;;;;;;0.64;0.30;;;;;;;16.03;74.64;98697.66;2022168;80;20200;-73
2021/05/10 11:46:44;;;;;;;0.29;0.21;;;;;;;16.09;75.02;98701.81;2019073;78;22038;-74
2021/05/10 11:49:50;;;;;;;1.19;0.30;;;;;;;16.20;75.37;98691.78;2017330;80;20602;-73
2021/05/10 11:52:52;;;;;;;1.25;0.20;;;;;;;16.26;74.79;98691.53;2018259;80;20218;-74
2021/05/10 11:55:55;;;;;;;0.30;0.24;;;;;;;16.30;74.41;98693.13;2016629;80;20637;-74
2021/05/10 11:59:22;;;;;;;0.25;0.20;;;;;;;16.34;74.53;98689.50;2016706;80;20190;-73
2021/05/10 12:02:29;;;;;;;0.20;0.20;;;;;;;16.48;73.65;98683.69;2020494;78;22178;-74
2021/05/10 12:05:31;;;;;;;0.20;0.20;;;;;;;16.62;73.33;98697.13;2022241;80;20212;-74
2021/05/10 12:08:39;;;;;;;0.24;0.20;;;;;;;16.82;72.29;98699.81;2018121;80;20195;-74
2021/05/10 12:11:41;;;;;;;0.31;0.20;;;;;;;17.09;71.81;98704.84;2022102;80;20204;-74
2021/05/10 12:14:47;;;;;;;0.32;0.24;;;;;;;17.22;69.88;98692.91;2021721;80;20854;-75
2021/05/10 12:17:54;;;;;;;0.20;0.20;;;;;;;17.32;68.17;98696.84;2016303;80;20829;-74
2021/05/10 12:20:56;;;;;;;1.11;0.30;;;;;;;17.27;67.95;98708.47;2015244;80;20757;-74
2021/05/10 12:24:05;;;;;;;0.25;0.25;;;;;;;17.33;69.08;98714.28;2016258;80;20172;-74
2021/05/10 12:27:08;;;;;;;0.36;0.20;;;;;;;17.35;69.51;98711.59;2015599;80;20776;-75
2021/05/10 12:30:25;;;;;;;3.19;0.30;;;;;;;17.41;68.80;98700.84;2016374;80;20225;-74
2021/05/10 12:33:29;;;;;;;0.82;0.13;;;;;;;17.32;67.11;98706.50;2023419;80;20159;-75
2021/05/10 12:36:31;;;;;;;1.24;0.30;;;;;;;17.31;66.69;98702.16;2021797;80;20614;-75
2021/05/10 12:39:33;;;;;;;2.06;0.20;;;;;;;17.34;66.38;98692.38;2021769;80;20204;-73
2021/05/10 12:42:36;;;;;;;1.50;0.20;;;;;;;17.33;65.32;98701.19;2021977;80;20198;-74
2021/05/10 12:45:40;;;;;;;0.52;0.30;;;;;;;17.36;66.32;98706.28;2020520;78;20187;-74
2021/05/10 12:48:45;;;;;;;0.30;0.30;;;;;;;17.44;65.63;98700.72;2016470;80;20308;-73
2021/05/10 12:51:54;;;;;;;0.30;0.30;;;;;;;17.36;64.78;98697.56;2016201;80;20414;-74
2021/05/10 12:54:56;;;;;;;0.46;0.22;;;;;;;17.37;65.72;98715.88;2016945;80;20219;-75
2021/05/10 12:57:58;;;;;;;0.31;0.31;;;;;;;17.38;64.91;98714.94;2016415;80;20180;-74
2021/05/10 13:01:29;;;;;;;0.38;0.30;;;;;;;17.39;64.81;98705.31;2016853;78;20727;-73
2021/05/10 13:04:43;;;;;;;0.74;0.40;;;;;;;17.37;65.71;98697.50;2021085;80;20201;-73
2021/05/10 13:07:46;;;;;;;0.30;0.29;;;;;;;17.28;64.13;98712.78;2021356;80;20312;-73
2021/05/10 13:10:54;;;;;;;0.56;0.30;;;;;;;17.22;64.28;98703.41;2021558;80;20200;-73
2021/05/10 13:14:01;;;;;;;0.28;0.20;;;;;;;17.19;65.14;98703.53;2021837;80;20224;-74
2021/05/10 13:17:26;;;;;;;0.20;0.20;;;;;;;17.22;65.28;98692.91;2017340;78;40211;-73
2021/05/10 13:37:20;;;;;;;1.86;0.16;;;;;;;17.17;67.02;98694.88;2021579;80;20199;-74
2021/05/10 13:40:21;;;;;;;2.40;0.20;;;;;;;17.13;67.53;98691.53;2022631;80;20162;-74
2021/05/10 13:43:50;;;;;;;0.93;0.63;;;;;;;17.10;67.78;98683.81;2021989;80;20199;-74
2021/05/10 13:46:53;;;;;;;0.56;0.40;;;;;;;17.09;66.79;98686.50;2020845;78;21749;-76
2021/05/10 13:49:55;;;;;;;0.10;0.10;;;;;;;17.10;66.66;98685.56;2021481;80;20211;-73
2021/05/10 13:52:57;;;;;;;0.61;0.54;;;;;;;17.14;65.79;98697.63;2021694;80;21242;-73
2021/05/10 13:55:58;;;;;;;5.93;1.44;;;;;;;17.03;65.50;98698.06;2020754;80;20175;-73
2021/05/10 13:59:01;;;;;;;0.46;0.40;;;;;;;16.94;65.59;98692.38;2021895;80;20553;-73
2021/05/10 14:02:02;;;;;;;0.70;0.32;;;;;;;16.92;66.26;98693.28;2017948;79;22776;-73
2021/05/10 14:05:05;;;;;;;0.35;0.35;;;;;;;16.98;66.90;98693.94;2016859;80;20967;-73
2021/05/10 14:08:07;;;;;;;0.45;0.32;;;;;;;16.88;66.15;98677.75;2017065;80;20655;-74
2021/05/10 14:11:09;;;;;;;0.17;0.10;;;;;;;16.89;68.15;98680.31;2017834;80;20171;-74
2021/05/10 14:14:11;;;;;;;0.26;0.20;;;;;;;16.94;68.15;98668.75;2018029;80;20180;-74
2021/05/10 14:17:12;;;;;;;15.40;13.80;;;;;;;17.00;66.29;98661.47;2019889;78;21354;-72
2021/05/10 14:20:17;;;;;;;32.04;28.81;;;;;;;17.03;66.61;98660.50;2022591;80;20196;-75
2021/05/10 14:23:18;;;;;;;2.49;1.99;;;;;;;17.04;67.02;98655.19;2022714;80;20199;-75
2021/05/10 14:26:21;;;;;;;20.80;16.67;;;;;;;17.09;68.02;98650.63;2022234;80;20174;-75
2021/05/10 14:29:23;;;;;;;2.22;2.03;;;;;;;17.06;67.39;98644.66;2023028;80;20609;-75
2021/05/10 14:32:25;;;;;;;2.86;0.80;;;;;;;16.94;67.91;98640.78;2021933;78;44536;-75
2021/05/10 14:35:28;;;;;;;1.15;1.05;;;;;;;16.96;68.99;98640.69;2022226;80;21177;-75
2021/05/10 14:38:30;;;;;;;1.31;0.70;;;;;;;16.88;67.61;98656.78;2022608;80;20559;-75
2021/05/10 14:41:33;;;;;;;0.68;0.68;;;;;;;16.75;68.26;98632.81;2021689;80;20175;-76
2021/05/10 14:44:35;;;;;;;2.05;0.50;;;;;;;16.72;69.04;98659.16;2022904;80;20218;-76
2021/05/10 14:47:37;;;;;;;2.44;0.28;;;;;;;16.70;68.78;98660.16;2021344;78;22367;-74
2021/05/10 14:50:38;;;;;;;0.56;0.22;;;;;;;16.63;69.80;98672.59;2023656;80;20191;-75